Time;durP1;ratioP1;P1;durP2;ratioP2;P2;SDS_P1;SDS_P2;PMS_P1;PMS_P2;Temp;Humidity;BMP_temperature;BMP_pressure;BME280_temperature;BME280_humidity;BME280_pressure;Samples;Min_cycle;Max_cycle;Signal;HPM_P1;HPM_P2
2023/09/14 03:00:53;;;;;;;;;;;23.50;58.80;;;;;;6023553;22;45863;-88
2023/09/14 03:03:19;;;;;;;;;;;23.50;58.80;;;;;;4954941;28;51561;-82
2023/09/14 03:05:48;;;;;;;;;;;23.40;58.80;;;;;;4993654;28;45639;-81
2023/09/14 03:08:14;;;;;;;;;;;23.40;58.80;;;;;;5016918;28;45742;-84
2023/09/14 03:10:42;;;;;;;;;;;23.50;58.80;;;;;;4988386;28;45150;-81
2023/09/14 03:13:08;;;;;;;;;;;23.50;58.80;;;;;;4976794;28;45230;-82
2023/09/14 03:15:34;;;;;;;;;;;23.50;58.80;;;;;;4996005;28;45244;-83
2023/09/14 03:18:00;;;;;;;;;;;23.40;58.70;;;;;;4977116;28;45123;-81
2023/09/14 03:20:25;;;;;;;;;;;23.50;58.80;;;;;;4964947;28;46194;-82
2023/09/14 03:22:51;;;;;;;;;;;23.50;58.70;;;;;;4980126;28;44692;-82
2023/09/14 03:25:16;;;;;;;;;;;23.50;58.70;;;;;;4969964;28;45315;-81
2023/09/14 03:27:44;;;;;;;;;;;23.50;58.70;;;;;;4998224;28;45196;-84
2023/09/14 03:30:10;;;;;;;;;;;23.40;58.70;;;;;;4972593;28;45898;-87
2023/09/14 03:32:35;;;;;;;;;;;23.40;58.60;;;;;;4982563;28;45429;-82
2023/09/14 03:35:01;;;;;;;;;;;23.50;58.70;;;;;;4979474;28;45422;-82
2023/09/14 03:37:26;;;;;;;;;;;23.40;58.60;;;;;;4976966;28;45956;-83
2023/09/14 03:39:52;;;;;;;;;;;23.40;58.60;;;;;;4981311;28;45612;-82
2023/09/14 03:42:17;;;;;;;;;;;23.50;58.60;;;;;;4968108;28;45700;-80
2023/09/14 03:44:43;;;;;;;;;;;23.40;58.60;;;;;;4981355;28;45265;-80
2023/09/14 03:47:09;;;;;;;;;;;23.40;58.60;;;;;;4997983;28;45895;-80
2023/09/14 03:49:35;;;;;;;;;;;23.50;58.60;;;;;;4999235;28;46430;-81
2023/09/14 03:52:01;;;;;;;;;;;23.40;58.50;;;;;;4969473;28;45286;-82
2023/09/14 03:54:26;;;;;;;;;;;23.40;58.50;;;;;;4978154;28;44891;-81
2023/09/14 03:56:52;;;;;;;;;;;23.40;58.50;;;;;;4950780;28;45811;-81
2023/09/14 03:59:17;;;;;;;;;;;23.40;58.50;;;;;;4986308;28;45299;-82
2023/09/14 04:01:43;;;;;;;;;;;23.40;58.50;;;;;;4970682;28;45785;-81
2023/09/14 04:04:09;;;;;;;;;;;23.50;58.60;;;;;;4978000;28;45624;-81
2023/09/14 04:06:34;;;;;;;;;;;23.40;58.50;;;;;;4978181;28;45277;-80
2023/09/14 04:09:00;;;;;;;;;;;23.40;58.50;;;;;;4965125;28;46878;-80
2023/09/14 04:11:25;;;;;;;;;;;23.40;58.50;;;;;;4967067;28;45250;-83
2023/09/14 04:13:51;;;;;;;;;;;23.40;58.50;;;;;;4977177;28;47736;-81
2023/09/14 04:16:17;;;;;;;;;;;23.40;58.50;;;;;;4969934;28;45257;-83
2023/09/14 04:18:42;;;;;;;;;;;23.40;58.50;;;;;;4964763;28;47031;-81
2023/09/14 04:21:08;;;;;;;;;;;23.40;58.50;;;;;;4977595;28;45261;-81
2023/09/14 04:23:34;;;;;;;;;;;23.40;58.40;;;;;;4964489;28;45078;-81
2023/09/14 04:26:00;;;;;;;;;;;23.40;58.50;;;;;;4976765;28;44737;-81
2023/09/14 04:28:25;;;;;;;;;;;23.40;58.50;;;;;;4968260;28;46227;-83
2023/09/14 04:30:52;;;;;;;;;;;23.40;58.40;;;;;;4953594;28;45442;-83
2023/09/14 04:33:17;;;;;;;;;;;23.40;58.50;;;;;;4964909;28;44645;-83
2023/09/14 04:35:43;;;;;;;;;;;23.40;58.40;;;;;;4963567;28;45237;-80
2023/09/14 04:38:08;;;;;;;;;;;23.40;58.40;;;;;;4957464;28;46193;-80
2023/09/14 04:40:38;;;;;;;;;;;23.40;58.50;;;;;;4959100;28;45364;-83
2023/09/14 04:43:04;;;;;;;;;;;23.40;58.40;;;;;;4982857;28;44899;-82
2023/09/14 04:45:29;;;;;;;;;;;23.40;58.40;;;;;;4957097;28;44768;-82
2023/09/14 04:47:56;;;;;;;;;;;23.40;58.40;;;;;;4962328;28;46093;-81
2023/09/14 04:50:21;;;;;;;;;;;23.40;58.40;;;;;;4964398;28;45868;-82
2023/09/14 04:52:47;;;;;;;;;;;23.40;58.40;;;;;;4965589;28;45241;-81
2023/09/14 04:55:13;;;;;;;;;;;23.40;58.40;;;;;;4988061;28;44790;-90
2023/09/14 04:57:39;;;;;;;;;;;23.40;58.40;;;;;;4998406;28;47003;-81
2023/09/14 05:00:12;;;;;;;;;;;23.40;58.40;;;;;;4974265;28;45238;-87
2023/09/14 05:02:40;;;;;;;;;;;23.40;58.40;;;;;;4963133;28;45186;-81
2023/09/14 05:05:07;;;;;;;;;;;23.30;58.30;;;;;;4982531;28;45254;-89
2023/09/14 05:07:33;;;;;;;;;;;23.30;58.40;;;;;;4962853;28;46809;-81
2023/09/14 05:09:59;;;;;;;;;;;23.30;58.30;;;;;;4943850;28;45421;-81
2023/09/14 05:12:25;;;;;;;;;;;23.30;58.30;;;;;;4973547;28;45605;-82
2023/09/14 05:14:51;;;;;;;;;;;23.30;58.30;;;;;;4964855;28;45262;-80
2023/09/14 05:17:16;;;;;;;;;;;23.30;58.30;;;;;;4974484;28;47131;-81
2023/09/14 05:19:42;;;;;;;;;;;23.30;58.30;;;;;;4979036;28;45397;-80
2023/09/14 05:22:09;;;;;;;;;;;23.40;58.40;;;;;;4971923;28;45232;-81
2023/09/14 05:24:34;;;;;;;;;;;23.40;58.30;;;;;;4966995;28;45492;-82
2023/09/14 05:27:00;;;;;;;;;;;23.40;58.40;;;;;;4957447;28;45551;-81
2023/09/14 05:29:26;;;;;;;;;;;23.30;58.40;;;;;;4981160;28;45367;-82
2023/09/14 05:31:52;;;;;;;;;;;23.30;58.90;;;;;;4975571;28;45423;-82
2023/09/14 05:34:17;;;;;;;;;;;23.30;58.30;;;;;;4961648;28;45510;-81
2023/09/14 05:36:43;;;;;;;;;;;23.30;58.30;;;;;;4964230;28;46743;-80
2023/09/14 05:39:09;;;;;;;;;;;23.30;58.30;;;;;;4962108;28;44746;-83
2023/09/14 05:41:35;;;;;;;;;;;23.30;58.30;;;;;;4975920;28;45092;-82
2023/09/14 05:44:00;;;;;;;;;;;23.30;58.30;;;;;;4982957;28;45481;-81
2023/09/14 05:46:26;;;;;;;;;;;23.30;58.30;;;;;;4957184;28;45962;-82
2023/09/14 05:48:51;;;;;;;;;;;23.30;58.30;;;;;;4968965;28;45360;-84
2023/09/14 05:51:17;;;;;;;;;;;23.30;58.20;;;;;;4962561;28;45244;-81
2023/09/14 05:53:43;;;;;;;;;;;23.30;58.20;;;;;;4986340;28;45067;-81
2023/09/14 05:56:08;;;;;;;;;;;23.30;58.20;;;;;;4961584;28;46150;-82
2023/09/14 05:58:34;;;;;;;;;;;23.30;58.30;;;;;;4964498;28;45285;-81
2023/09/14 06:01:00;;;;;;;;;;;23.30;58.20;;;;;;4963928;28;45335;-82
2023/09/14 06:03:26;;;;;;;;;;;23.30;58.20;;;;;;4984621;28;45417;-82
2023/09/14 06:05:51;;;;;;;;;;;23.30;58.20;;;;;;4968147;28;45996;-81
2023/09/14 06:08:17;;;;;;;;;;;23.30;58.20;;;;;;4955937;28;44853;-83
2023/09/14 06:10:43;;;;;;;;;;;23.30;58.20;;;;;;4947543;28;45478;-82
2023/09/14 06:13:09;;;;;;;;;;;23.30;58.20;;;;;;4955025;28;45031;-81
2023/09/14 06:15:34;;;;;;;;;;;23.30;58.20;;;;;;4948959;23;45812;-44
2023/09/14 06:18:00;;;;;;;;;;;23.30;58.20;;;;;;4981250;28;45209;-42
2023/09/14 06:20:25;;;;;;;;;;;23.30;58.20;;;;;;4951870;28;45248;-43
2023/09/14 06:22:51;;;;;;;;;;;23.30;58.20;;;;;;4967290;28;45741;-42
2023/09/14 06:25:16;;;;;;;;;;;23.30;58.20;;;;;;4967880;28;45049;-43
2023/09/14 06:27:44;;;;;;;;;;;23.30;58.20;;;;;;4950915;28;45481;-43
2023/09/14 06:30:09;;;;;;;;;;;23.30;58.20;;;;;;4960244;28;45262;-43
2023/09/14 06:32:35;;;;;;;;;;;23.30;58.20;;;;;;4946936;28;45630;-42
2023/09/14 06:35:01;;;;;;;;;;;23.30;58.20;;;;;;4972029;28;46257;-42
2023/09/14 06:37:27;;;;;;;;;;;23.30;58.20;;;;;;4960771;28;44781;-43
2023/09/14 06:39:53;;;;;;;;;;;23.30;58.20;;;;;;4973352;28;45235;-43
2023/09/14 06:42:18;;;;;;;;;;;23.30;58.10;;;;;;4946296;28;45349;-43
2023/09/14 06:44:44;;;;;;;;;;;23.30;58.10;;;;;;4963149;28;45270;-43
2023/09/14 06:47:09;;;;;;;;;;;23.30;58.10;;;;;;4956850;28;45256;-43
2023/09/14 06:49:35;;;;;;;;;;;23.30;58.10;;;;;;4963983;28;44707;-42
2023/09/14 06:52:00;;;;;;;;;;;23.30;58.10;;;;;;4962472;28;44712;-43
2023/09/14 06:54:26;;;;;;;;;;;23.30;58.10;;;;;;4970988;28;46168;-43
2023/09/14 06:56:52;;;;;;;;;;;23.30;58.10;;;;;;4970967;28;45565;-43
2023/09/14 06:59:17;;;;;;;;;;;23.30;58.10;;;;;;4955145;28;45244;-43
2023/09/14 07:01:43;;;;;;;;;;;23.30;58.10;;;;;;4942061;28;45579;-43
2023/09/14 07:04:08;;;;;;;;;;;23.30;58.10;;;;;;4971372;28;46253;-42
2023/09/14 07:06:34;;;;;;;;;;;23.30;58.10;;;;;;4960238;28;45135;-43
2023/09/14 07:08:59;;;;;;;;;;;23.30;58.00;;;;;;4964164;28;45342;-43
2023/09/14 07:11:25;;;;;;;;;;;23.30;58.00;;;;;;4955802;28;45830;-42
2023/09/14 07:13:51;;;;;;;;;;;23.30;58.10;;;;;;4958778;28;45247;-43
2023/09/14 07:16:18;;;;;;;;;;;23.30;57.70;;;;;;4938473;28;45642;-43
2023/09/14 07:18:44;;;;;;;;;;;23.30;58.00;;;;;;4965741;28;46246;-42
2023/09/14 07:21:09;;;;;;;;;;;23.30;58.00;;;;;;4954855;28;45233;-43
2023/09/14 07:23:35;;;;;;;;;;;23.30;58.00;;;;;;4972453;28;45470;-44
2023/09/14 07:26:02;;;;;;;;;;;23.30;58.00;;;;;;4964670;28;45394;-42
2023/09/14 07:28:27;;;;;;;;;;;23.30;58.00;;;;;;4977158;28;45426;-43
2023/09/14 07:30:54;;;;;;;;;;;23.30;58.00;;;;;;4933429;28;45356;-42
2023/09/14 07:33:21;;;;;;;;;;;23.20;57.90;;;;;;4963354;28;46115;-42
2023/09/14 07:35:46;;;;;;;;;;;23.20;58.00;;;;;;4958736;28;45200;-42
2023/09/14 07:38:12;;;;;;;;;;;23.30;58.00;;;;;;4974998;28;45331;-43
2023/09/14 07:40:38;;;;;;;;;;;23.20;57.90;;;;;;4954238;28;45217;-43
2023/09/14 07:43:03;;;;;;;;;;;23.20;58.00;;;;;;4972445;28;45136;-42
2023/09/14 07:45:30;;;;;;;;;;;23.30;58.00;;;;;;4958249;28;45363;-42
2023/09/14 07:47:56;;;;;;;;;;;23.30;58.00;;;;;;4949742;28;45415;-43
2023/09/14 07:50:21;;;;;;;;;;;23.20;57.90;;;;;;4958235;28;45651;-42
2023/09/14 07:52:47;;;;;;;;;;;23.30;57.90;;;;;;4966095;28;46048;-43
2023/09/14 07:55:12;;;;;;;;;;;23.20;57.90;;;;;;4968480;28;45892;-43
2023/09/14 07:57:38;;;;;;;;;;;23.20;57.90;;;;;;4967228;28;44840;-43
2023/09/14 08:00:04;;;;;;;;;;;23.20;57.90;;;;;;4974649;28;44852;-43
2023/09/14 08:02:30;;;;;;;;;;;23.20;57.90;;;;;;4929196;28;45878;-42
2023/09/14 08:04:55;;;;;;;;;;;23.20;57.90;;;;;;4964829;28;46080;-43
2023/09/14 08:07:20;;;;;;;;;;;23.30;57.90;;;;;;4960616;28;45431;-42
2023/09/14 08:09:46;;;;;;;;;;;23.20;57.90;;;;;;4966030;28;45319;-43
2023/09/14 08:12:11;;;;;;;;;;;23.20;57.80;;;;;;4956169;28;46009;-42
2023/09/14 08:14:37;;;;;;;;;;;23.20;57.90;;;;;;4966684;28;46006;-43
2023/09/14 08:17:04;;;;;;;;;;;23.20;57.80;;;;;;4953947;28;59548;-43
2023/09/14 08:19:30;;;;;;;;;;;23.20;57.90;;;;;;4950602;28;46098;-43
2023/09/14 08:21:55;;;;;;;;;;;23.20;57.90;;;;;;4949901;28;46069;-42
2023/09/14 08:24:20;;;;;;;;;;;23.20;57.80;;;;;;4971302;28;45634;-44
2023/09/14 08:26:46;;;;;;;;;;;23.20;57.80;;;;;;4964317;28;45399;-43
2023/09/14 08:29:12;;;;;;;;;;;23.20;57.90;;;;;;4977770;28;44781;-42
2023/09/14 08:31:37;;;;;;;;;;;23.20;57.80;;;;;;4943668;28;46213;-43
2023/09/14 08:34:03;;;;;;;;;;;23.20;57.80;;;;;;4947041;28;45575;-44
2023/09/14 08:36:28;;;;;;;;;;;23.20;57.80;;;;;;4964731;28;45519;-42
2023/09/14 08:38:54;;;;;;;;;;;23.20;57.80;;;;;;4968019;28;45100;-44
2023/09/14 08:41:26;;;;;;;;;;;23.20;57.80;;;;;;4966188;28;46114;-43
2023/09/14 08:43:51;;;;;;;;;;;23.20;57.80;;;;;;4967392;28;45251;-42
2023/09/14 08:46:17;;;;;;;;;;;23.20;57.80;;;;;;4955865;28;45468;-42
2023/09/14 08:48:43;;;;;;;;;;;23.20;57.80;;;;;;4973466;28;44974;-42
2023/09/14 08:51:08;;;;;;;;;;;23.20;57.80;;;;;;4943478;28;45957;-42
2023/09/14 08:53:34;;;;;;;;;;;23.20;57.80;;;;;;4967069;28;45654;-43
2023/09/14 08:56:00;;;;;;;;;;;23.20;57.80;;;;;;4957754;28;45344;-43
2023/09/14 08:58:27;;;;;;;;;;;23.20;57.80;;;;;;4990620;28;45175;-43
2023/09/14 09:00:53;;;;;;;;;;;23.20;57.80;;;;;;4952831;28;45250;-42
2023/09/14 09:03:19;;;;;;;;;;;23.20;57.80;;;;;;4959782;28;44793;-43
2023/09/14 09:05:44;;;;;;;;;;;23.20;57.80;;;;;;4938306;28;45369;-42
2023/09/14 09:08:11;;;;;;;;;;;23.20;57.80;;;;;;4956784;28;45710;-43
2023/09/14 09:10:38;;;;;;;;;;;23.20;57.70;;;;;;4962676;28;46986;-42
2023/09/14 09:13:03;;;;;;;;;;;23.20;57.70;;;;;;4970264;28;45226;-42
2023/09/14 09:15:29;;;;;;;;;;;23.20;57.80;;;;;;4945832;28;45199;-43
2023/09/14 09:17:55;;;;;;;;;;;23.20;57.70;;;;;;4967360;28;45644;-42
2023/09/14 09:20:24;;;;;;;;;;;23.20;57.80;;;;;;4963389;28;45999;-42
2023/09/14 09:22:53;;;;;;;;;;;23.20;57.80;;;;;;4952306;28;45586;-43
2023/09/14 09:25:19;;;;;;;;;;;23.20;57.70;;;;;;4953758;28;45372;-43
2023/09/14 09:27:45;;;;;;;;;;;23.20;57.70;;;;;;4970979;28;45454;-43
2023/09/14 09:30:10;;;;;;;;;;;23.20;57.70;;;;;;4963194;28;46284;-43
2023/09/14 09:32:36;;;;;;;;;;;23.20;57.70;;;;;;4958249;28;45039;-43
2023/09/14 09:35:18;;;;;;;;;;;23.20;57.70;;;;;;4960499;28;45363;-44
2023/09/14 09:37:44;;;;;;;;;;;23.20;57.70;;;;;;4947175;28;45674;-42
2023/09/14 09:40:13;;;;;;;;;;;23.20;57.70;;;;;;4962164;28;46485;-43
2023/09/14 09:42:38;;;;;;;;;;;23.20;57.70;;;;;;4975784;28;45596;-42
2023/09/14 09:45:04;;;;;;;;;;;23.20;57.70;;;;;;4960748;28;45694;-43
2023/09/14 09:47:33;;;;;;;;;;;23.20;57.70;;;;;;4952846;28;45614;-42
2023/09/14 09:49:58;;;;;;;;;;;23.20;57.70;;;;;;4970007;28;45902;-42
2023/09/14 09:52:24;;;;;;;;;;;23.20;57.70;;;;;;4959667;28;44943;-42
2023/09/14 09:54:50;;;;;;;;;;;23.20;57.70;;;;;;4949247;28;52470;-42
2023/09/14 09:57:15;;;;;;;;;;;23.20;57.70;;;;;;4953701;28;44941;-43
2023/09/14 09:59:42;;;;;;;;;;;23.20;57.70;;;;;;4978733;28;44994;-43
2023/09/14 10:02:08;;;;;;;;;;;23.20;57.70;;;;;;4953580;28;47947;-44
2023/09/14 10:04:34;;;;;;;;;;;23.20;57.70;;;;;;4976186;28;45105;-43
2023/09/14 10:07:02;;;;;;;;;;;23.20;57.70;;;;;;4950434;28;45589;-44
2023/09/14 10:09:34;;;;;;;;;;;23.20;57.60;;;;;;4955276;28;45637;-44
2023/09/14 10:12:01;;;;;;;;;;;23.20;57.60;;;;;;4965471;28;45313;-43
2023/09/14 10:14:26;;;;;;;;;;;23.20;57.60;;;;;;4948292;28;45335;-42
2023/09/14 10:16:52;;;;;;;;;;;23.20;57.60;;;;;;4922917;28;45758;-43
2023/09/14 10:19:17;;;;;;;;;;;23.20;57.60;;;;;;4968603;28;46157;-44
2023/09/14 10:21:43;;;;;;;;;;;23.20;57.70;;;;;;4962647;28;45231;-43
2023/09/14 10:24:09;;;;;;;;;;;23.20;57.60;;;;;;4976607;28;45562;-43
2023/09/14 10:26:37;;;;;;;;;;;23.20;57.60;;;;;;4966156;28;44887;-42
2023/09/14 10:29:06;;;;;;;;;;;23.20;57.60;;;;;;4973563;28;46068;-43
2023/09/14 10:31:31;;;;;;;;;;;23.20;57.60;;;;;;4948503;28;45189;-42
2023/09/14 10:33:59;;;;;;;;;;;23.20;57.60;;;;;;4952615;28;45366;-43
2023/09/14 10:36:32;;;;;;;;;;;23.20;57.60;;;;;;4963691;28;45780;-43
2023/09/14 10:38:58;;;;;;;;;;;23.20;57.60;;;;;;4969298;28;45597;-43
2023/09/14 10:41:23;;;;;;;;;;;23.20;57.60;;;;;;4966058;28;45416;-45
2023/09/14 10:43:49;;;;;;;;;;;23.20;57.10;;;;;;4956344;28;45427;-43
2023/09/14 10:46:16;;;;;;;;;;;23.20;57.60;;;;;;4943364;28;48014;-42
2023/09/14 10:48:41;;;;;;;;;;;23.20;57.60;;;;;;4953812;28;45280;-43
2023/09/14 10:51:08;;;;;;;;;;;23.20;57.60;;;;;;4954877;28;45337;-43
2023/09/14 10:53:34;;;;;;;;;;;23.20;57.60;;;;;;4976090;28;45173;-42
2023/09/14 10:55:59;;;;;;;;;;;23.20;57.60;;;;;;4962917;28;45407;-42
2023/09/14 10:58:25;;;;;;;;;;;23.20;57.60;;;;;;4974857;28;45727;-42
2023/09/14 11:00:59;;;;;;;;;;;23.20;57.60;;;;;;4930500;28;46028;-44
2023/09/14 11:03:25;;;;;;;;;;;23.20;57.60;;;;;;4966317;28;45191;-42
2023/09/14 11:05:51;;;;;;;;;;;23.20;57.60;;;;;;4961688;28;45922;-42
2023/09/14 11:08:18;;;;;;;;;;;23.20;57.60;;;;;;4971841;28;46084;-42
2023/09/14 11:10:52;;;;;;;;;;;23.20;57.60;;;;;;4942540;28;45185;-43
2023/09/14 11:13:21;;;;;;;;;;;23.20;57.60;;;;;;4966813;28;45043;-43
2023/09/14 11:15:47;;;;;;;;;;;23.20;57.60;;;;;;4951066;28;45662;-42
2023/09/14 11:18:18;;;;;;;;;;;23.20;57.60;;;;;;4967366;28;46149;-42
2023/09/14 11:20:44;;;;;;;;;;;23.20;57.60;;;;;;4954209;28;46009;-42
2023/09/14 11:23:10;;;;;;;;;;;23.20;57.60;;;;;;4961836;28;44750;-43
2023/09/14 11:25:36;;;;;;;;;;;23.20;57.60;;;;;;4966242;28;45265;-43
2023/09/14 11:28:02;;;;;;;;;;;23.20;57.50;;;;;;4971062;28;46075;-43
2023/09/14 11:30:28;;;;;;;;;;;23.20;57.50;;;;;;4957163;28;45942;-44
2023/09/14 11:32:53;;;;;;;;;;;23.20;57.50;;;;;;4939987;28;45685;-43
2023/09/14 11:35:31;;;;;;;;;;;23.20;57.50;;;;;;4943158;28;45505;-43
2023/09/14 11:37:59;;;;;;;;;;;23.20;57.50;;;;;;4956127;28;45937;-42
2023/09/14 11:40:27;;;;;;;;;;;23.20;57.50;;;;;;4954796;28;45083;-43
2023/09/14 11:43:10;;;;;;;;;;;23.20;57.50;;;;;;4945993;28;45464;-43
2023/09/14 11:45:38;;;;;;;;;;;23.20;57.50;;;;;;4956440;28;44843;-42
2023/09/14 11:48:04;;;;;;;;;;;23.20;57.50;;;;;;4960663;28;46942;-42
2023/09/14 11:50:29;;;;;;;;;;;23.20;58.10;;;;;;4956629;28;45214;-43
2023/09/14 11:52:56;;;;;;;;;;;23.20;57.50;;;;;;4959341;28;45634;-43
2023/09/14 11:55:21;;;;;;;;;;;23.20;57.50;;;;;;4952061;28;49613;-42
2023/09/14 11:57:48;;;;;;;;;;;23.20;58.10;;;;;;4976051;28;45493;-42
2023/09/14 12:00:14;;;;;;;;;;;23.20;57.50;;;;;;4955669;28;45304;-43
2023/09/14 12:02:40;;;;;;;;;;;23.20;57.50;;;;;;4961356;28;45300;-42
2023/09/14 12:05:05;;;;;;;;;;;23.20;57.50;;;;;;4946019;28;47602;-44
2023/09/14 12:07:31;;;;;;;;;;;23.20;57.50;;;;;;4968134;28;46205;-43
2023/09/14 12:09:57;;;;;;;;;;;23.20;57.50;;;;;;4968097;28;45436;-43
2023/09/14 12:12:29;;;;;;;;;;;23.20;57.50;;;;;;4966046;28;45274;-42
2023/09/14 12:14:55;;;;;;;;;;;23.20;57.50;;;;;;4956931;28;45911;-42
2023/09/14 12:17:21;;;;;;;;;;;23.20;57.50;;;;;;4954925;28;45410;-43
2023/09/14 12:19:56;;;;;;;;;;;23.20;57.60;;;;;;4975001;28;44912;-42
2023/09/14 12:22:24;;;;;;;;;;;23.20;57.50;;;;;;4960382;28;45274;-43
2023/09/14 12:24:50;;;;;;;;;;;23.20;57.50;;;;;;4980035;28;45270;-43
2023/09/14 12:27:16;;;;;;;;;;;23.20;57.40;;;;;;4942237;28;45958;-43
2023/09/14 12:29:41;;;;;;;;;;;23.20;57.40;;;;;;4956426;28;45356;-42
2023/09/14 12:32:07;;;;;;;;;;;23.20;57.40;;;;;;4937958;28;45387;-42
2023/09/14 12:34:32;;;;;;;;;;;23.20;57.40;;;;;;4969376;28;45736;-41
2023/09/14 12:36:59;;;;;;;;;;;23.20;57.40;;;;;;4929329;28;45509;-43
2023/09/14 12:39:25;;;;;;;;;;;23.20;57.40;;;;;;4970409;28;45201;-42
2023/09/14 12:41:52;;;;;;;;;;;23.20;57.40;;;;;;4953125;28;45214;-42
2023/09/14 12:44:18;;;;;;;;;;;23.20;57.40;;;;;;4962678;28;45843;-42
2023/09/14 12:46:44;;;;;;;;;;;23.30;57.40;;;;;;4959601;28;46006;-43
2023/09/14 12:49:13;;;;;;;;;;;23.20;57.40;;;;;;4947415;28;45266;-44
2023/09/14 12:51:44;;;;;;;;;;;23.20;57.40;;;;;;4958019;28;45271;-42
2023/09/14 12:54:10;;;;;;;;;;;23.30;57.50;;;;;;4971417;28;44716;-43
2023/09/14 12:56:36;;;;;;;;;;;23.20;57.40;;;;;;4964776;28;46101;-42
2023/09/14 12:59:04;;;;;;;;;;;23.20;57.40;;;;;;4953748;28;45520;-43
2023/09/14 13:01:30;;;;;;;;;;;23.30;57.50;;;;;;4945831;28;45371;-42
2023/09/14 13:03:57;;;;;;;;;;;23.30;57.40;;;;;;4965240;28;45426;-42
2023/09/14 13:06:23;;;;;;;;;;;23.30;57.40;;;;;;4953269;28;45577;-44
2023/09/14 13:08:48;;;;;;;;;;;23.30;57.40;;;;;;4960765;28;45757;-44
2023/09/14 13:11:21;;;;;;;;;;;23.30;57.40;;;;;;4946646;28;46461;-43
2023/09/14 13:13:46;;;;;;;;;;;23.30;57.40;;;;;;4971475;28;45998;-43
2023/09/14 13:16:14;;;;;;;;;;;23.30;57.40;;;;;;4949383;28;45896;-43
2023/09/14 13:18:40;;;;;;;;;;;23.30;57.40;;;;;;4965445;28;45308;-42
2023/09/14 13:21:06;;;;;;;;;;;23.30;57.40;;;;;;4936503;28;45494;-42
2023/09/14 13:23:31;;;;;;;;;;;23.30;57.50;;;;;;4963150;28;45555;-42
2023/09/14 13:25:57;;;;;;;;;;;23.30;57.40;;;;;;4960472;28;45267;-42
2023/09/14 13:28:24;;;;;;;;;;;23.30;57.40;;;;;;4965741;28;45272;-42
2023/09/14 13:30:50;;;;;;;;;;;23.30;57.40;;;;;;4936691;28;45190;-43
2023/09/14 13:33:16;;;;;;;;;;;23.30;57.50;;;;;;4949350;28;45193;-44
2023/09/14 13:35:42;;;;;;;;;;;23.30;57.40;;;;;;4965166;28;45933;-44
2023/09/14 13:38:08;;;;;;;;;;;23.30;57.40;;;;;;4969691;28;46011;-44
2023/09/14 13:40:33;;;;;;;;;;;23.30;57.40;;;;;;4960658;28;46272;-43
2023/09/14 13:43:00;;;;;;;;;;;23.30;57.40;;;;;;4946824;28;45271;-43
2023/09/14 13:45:26;;;;;;;;;;;23.30;57.40;;;;;;4952444;28;45419;-42
2023/09/14 13:47:52;;;;;;;;;;;23.30;57.40;;;;;;4965644;28;45013;-42
2023/09/14 13:50:18;;;;;;;;;;;23.30;57.40;;;;;;4964652;28;45272;-44
2023/09/14 13:52:43;;;;;;;;;;;23.30;57.40;;;;;;4952733;28;45782;-42
2023/09/14 13:55:09;;;;;;;;;;;23.30;57.40;;;;;;4962184;28;46112;-43
2023/09/14 13:57:35;;;;;;;;;;;23.30;57.40;;;;;;4971914;28;46532;-44
2023/09/14 14:00:02;;;;;;;;;;;23.30;57.40;;;;;;4968945;28;45745;-43
2023/09/14 14:02:29;;;;;;;;;;;23.30;57.40;;;;;;4929735;28;47840;-42
2023/09/14 14:04:54;;;;;;;;;;;23.30;57.40;;;;;;4958514;28;48292;-43
2023/09/14 14:07:20;;;;;;;;;;;23.30;57.40;;;;;;4960242;28;45827;-43
2023/09/14 14:09:45;;;;;;;;;;;23.30;57.40;;;;;;4960511;28;46473;-44
2023/09/14 14:12:11;;;;;;;;;;;23.30;57.40;;;;;;4945641;28;45637;-43
2023/09/14 14:14:37;;;;;;;;;;;23.30;57.40;;;;;;4966429;28;45662;-44
2023/09/14 14:17:02;;;;;;;;;;;23.30;57.40;;;;;;4946920;28;45521;-43
2023/09/14 14:19:28;;;;;;;;;;;23.30;57.40;;;;;;4933159;28;46200;-46
2023/09/14 14:21:54;;;;;;;;;;;23.30;57.40;;;;;;4927192;28;45535;-42
2023/09/14 14:24:19;;;;;;;;;;;23.30;57.40;;;;;;4968797;28;45907;-43
2023/09/14 14:26:45;;;;;;;;;;;23.30;57.40;;;;;;4938119;28;45355;-45
2023/09/14 14:29:10;;;;;;;;;;;23.30;57.40;;;;;;4963539;28;45185;-42
2023/09/14 14:31:36;;;;;;;;;;;23.30;57.40;;;;;;4958417;28;45665;-43
2023/09/14 14:34:02;;;;;;;;;;;23.30;57.40;;;;;;4955776;28;45919;-44
2023/09/14 14:36:29;;;;;;;;;;;23.30;57.40;;;;;;4957039;28;45295;-43
2023/09/14 14:38:55;;;;;;;;;;;23.30;57.40;;;;;;4973699;28;45628;-44
2023/09/14 14:41:20;;;;;;;;;;;23.30;57.40;;;;;;4942219;28;45807;-43
2023/09/14 14:43:45;;;;;;;;;;;23.30;57.40;;;;;;4974423;28;45888;-42
2023/09/14 14:46:11;;;;;;;;;;;23.30;57.40;;;;;;4956248;28;45009;-43
2023/09/14 14:48:41;;;;;;;;;;;23.30;57.40;;;;;;4953695;28;45304;-43
2023/09/14 14:51:07;;;;;;;;;;;23.30;57.40;;;;;;4946941;28;45637;-44
2023/09/14 14:53:32;;;;;;;;;;;23.30;58.00;;;;;;4962785;28;47155;-43
2023/09/14 14:55:58;;;;;;;;;;;23.30;57.40;;;;;;4941005;28;51088;-43
2023/09/14 14:58:23;;;;;;;;;;;23.30;57.40;;;;;;4962465;28;45268;-42
2023/09/14 15:00:49;;;;;;;;;;;23.30;58.00;;;;;;4951948;28;45946;-42
2023/09/14 15:03:15;;;;;;;;;;;23.30;57.40;;;;;;4945993;28;45624;-44
2023/09/14 15:05:40;;;;;;;;;;;23.30;57.40;;;;;;4953702;28;45324;-42
2023/09/14 15:08:06;;;;;;;;;;;23.30;57.40;;;;;;4963528;28;45321;-43
2023/09/14 15:10:34;;;;;;;;;;;23.30;57.40;;;;;;4933071;28;45467;-42
2023/09/14 15:13:00;;;;;;;;;;;23.30;57.40;;;;;;4964098;28;46586;-43
2023/09/14 15:15:26;;;;;;;;;;;23.30;57.40;;;;;;4948012;28;45028;-43
2023/09/14 15:17:51;;;;;;;;;;;23.30;57.40;;;;;;4951113;28;45534;-42
2023/09/14 15:22:48;;;;;;;;;;;23.30;57.30;;;;;;4953892;28;45478;-43
2023/09/14 15:25:13;;;;;;;;;;;23.30;57.30;;;;;;4939986;28;45264;-43
2023/09/14 15:27:39;;;;;;;;;;;23.30;57.40;;;;;;4969548;28;45261;-43
2023/09/14 15:30:05;;;;;;;;;;;23.30;57.30;;;;;;4973652;28;45535;-44
2023/09/14 15:32:31;;;;;;;;;;;23.30;57.40;;;;;;4900087;28;45806;-43
2023/09/14 15:34:57;;;;;;;;;;;23.30;57.30;;;;;;4944017;28;45228;-43
2023/09/14 15:37:22;;;;;;;;;;;23.30;57.30;;;;;;4936528;28;45929;-44
2023/09/14 15:39:48;;;;;;;;;;;23.30;57.30;;;;;;4934680;28;45476;-43
2023/09/14 15:42:14;;;;;;;;;;;23.30;57.30;;;;;;4933616;28;46330;-43
2023/09/14 15:44:43;;;;;;;;;;;23.30;57.30;;;;;;4948353;28;44937;-42
2023/09/14 15:47:09;;;;;;;;;;;23.30;57.30;;;;;;4916383;28;45491;-42
2023/09/14 15:49:35;;;;;;;;;;;23.30;57.30;;;;;;4927880;28;45214;-43
2023/09/14 15:52:00;;;;;;;;;;;23.30;57.30;;;;;;4935594;28;45850;-43
2023/09/14 15:54:26;;;;;;;;;;;23.30;57.30;;;;;;4936171;28;46767;-43
2023/09/14 15:56:51;;;;;;;;;;;23.30;57.30;;;;;;4942006;28;45001;-43
2023/09/14 15:59:17;;;;;;;;;;;23.30;57.20;;;;;;4935728;28;45601;-43
2023/09/14 16:01:44;;;;;;;;;;;23.30;57.20;;;;;;4913871;28;45360;-43
2023/09/14 16:04:10;;;;;;;;;;;23.30;57.30;;;;;;4948194;28;45226;-43
2023/09/14 16:06:35;;;;;;;;;;;23.30;57.20;;;;;;4929706;28;45234;-43
2023/09/14 16:09:01;;;;;;;;;;;23.30;57.30;;;;;;4946374;28;46011;-43
2023/09/14 16:11:26;;;;;;;;;;;23.30;57.20;;;;;;4935499;28;46178;-43
2023/09/14 16:13:52;;;;;;;;;;;23.30;57.20;;;;;;4952642;28;45248;-45
2023/09/14 16:16:17;;;;;;;;;;;23.30;57.20;;;;;;4922809;28;45328;-46
2023/09/14 16:18:43;;;;;;;;;;;23.30;57.20;;;;;;4936525;28;45265;-43
2023/09/14 16:21:09;;;;;;;;;;;23.30;57.20;;;;;;4936777;28;45991;-43
2023/09/14 16:23:34;;;;;;;;;;;23.30;57.20;;;;;;4942475;28;45615;-43
2023/09/14 16:26:00;;;;;;;;;;;23.30;57.20;;;;;;4897826;28;45565;-43
2023/09/14 16:28:25;;;;;;;;;;;23.30;57.20;;;;;;4926221;28;46255;-43
2023/09/14 16:30:51;;;;;;;;;;;23.40;57.20;;;;;;4934297;28;45164;-43
2023/09/14 16:33:17;;;;;;;;;;;23.30;57.10;;;;;;4916924;28;45661;-43
2023/09/14 16:35:43;;;;;;;;;;;23.30;57.10;;;;;;4934238;28;45690;-43
2023/09/14 16:38:09;;;;;;;;;;;23.40;57.20;;;;;;4942119;28;45003;-44
2023/09/14 16:40:34;;;;;;;;;;;23.30;57.10;;;;;;4917450;28;46047;-43
2023/09/14 16:43:00;;;;;;;;;;;23.30;57.10;;;;;;4943867;28;45456;-43
2023/09/14 16:45:25;;;;;;;;;;;23.30;57.10;;;;;;4929750;28;45651;-43
2023/09/14 16:47:51;;;;;;;;;;;23.30;57.10;;;;;;4916001;28;45966;-43
2023/09/14 16:50:16;;;;;;;;;;;23.30;57.10;;;;;;4923478;28;45433;-43
2023/09/14 16:52:42;;;;;;;;;;;23.30;57.10;;;;;;4945268;28;45254;-43
2023/09/14 16:55:07;;;;;;;;;;;23.30;57.10;;;;;;4927152;28;51588;-44
2023/09/14 16:57:33;;;;;;;;;;;23.40;57.20;;;;;;4936184;28;46086;-43
2023/09/14 16:59:58;;;;;;;;;;;23.30;57.10;;;;;;4936849;28;45537;-43
2023/09/14 17:02:24;;;;;;;;;;;23.30;57.10;;;;;;4906244;28;45400;-43
2023/09/14 17:04:50;;;;;;;;;;;23.30;57.10;;;;;;4942512;28;45418;-43
2023/09/14 17:07:15;;;;;;;;;;;23.40;57.10;;;;;;4941898;28;45234;-42
2023/09/14 17:09:41;;;;;;;;;;;23.30;57.00;;;;;;4915071;28;45851;-43
2023/09/14 17:12:06;;;;;;;;;;;23.30;57.00;;;;;;4929144;28;45589;-43